TAF PACD
AMD PACD 090922Z 0909/1006 14030G40KT 4SM -RASN BR BKN025 TEMPO 0909/0913 2SM -RASN BR FM091300 20045G55KT 2SM -RA BR OVC015 FM091800 29042G52KT 2SM -SN OVC015 FM092100 29040G50KT 6SM -SN BKN035=
METAR PACD
WC PACD
WS PACD
WV PACD